createdAt,value
2022-11-17T00:00:09.719Z,1.92
2022-11-17T00:03:39.473Z,1.90
2022-11-17T00:07:17.285Z,1.91
2022-11-17T00:11:14.246Z,1.89
2022-11-17T00:14:37.273Z,1.88
2022-11-17T00:18:32.601Z,1.86
2022-11-17T00:22:13.591Z,1.85
2022-11-17T00:25:35.191Z,1.85
2022-11-17T00:29:12.869Z,1.84
2022-11-17T00:33:28.215Z,1.85
2022-11-17T00:36:53.376Z,1.85
2022-11-17T00:40:46.641Z,1.85
2022-11-17T00:44:09.093Z,1.88
2022-11-17T00:47:45.813Z,1.86
2022-11-17T00:51:42.390Z,1.85
2022-11-17T00:55:04.703Z,1.82
2022-11-17T00:58:41.935Z,1.84
2022-11-17T01:02:19.676Z,1.86
2022-11-17T01:06:06.415Z,1.88
2022-11-17T01:09:53.769Z,1.85
2022-11-17T01:13:18.156Z,1.83
2022-11-17T01:17:12.067Z,1.87
2022-11-17T01:20:33.975Z,1.85
2022-11-17T01:24:12.621Z,1.86
2022-11-17T01:27:49.187Z,1.86
2022-11-17T01:31:50.111Z,1.90
2022-11-17T01:35:33.752Z,1.91
2022-11-17T01:38:56.148Z,1.89
2022-11-17T01:42:52.524Z,1.89
2022-11-17T01:46:37.309Z,1.93
2022-11-17T01:50:27.110Z,1.96
2022-11-17T01:53:51.386Z,1.99
2022-11-17T01:57:35.726Z,2.01
2022-11-17T02:01:04.248Z,1.99
2022-11-17T02:04:49.807Z,1.97
2022-11-17T02:08:40.580Z,1.95
2022-11-17T02:12:03.102Z,1.99
2022-11-17T02:15:39.702Z,2.05
2022-11-17T02:19:39.462Z,2.04
2022-11-17T02:23:43.052Z,2.00
2022-11-17T02:27:39.280Z,1.99
2022-11-17T02:31:17.071Z,1.97
2022-11-17T02:34:54.846Z,2.02
2022-11-17T02:38:48.120Z,2.06
2022-11-17T02:42:46.503Z,2.07
2022-11-17T02:46:12.057Z,2.03
2022-11-17T02:50:06.059Z,2.03
2022-11-17T02:53:29.857Z,2.04
2022-11-17T02:57:05.887Z,2.06
2022-11-17T03:01:21.279Z,2.12
2022-11-17T03:05:20.244Z,2.13
2022-11-17T03:09:26.134Z,2.16
2022-11-17T03:13:04.525Z,2.08
2022-11-17T03:16:38.412Z,2.05
2022-11-17T03:20:45.923Z,2.00
2022-11-17T03:24:19.687Z,2.01
2022-11-17T03:27:49.231Z,2.04
2022-11-17T03:31:25.438Z,2.05
2022-11-17T03:35:07.266Z,2.06
2022-11-17T03:38:45.156Z,2.05
2022-11-17T03:42:39.792Z,2.00
2022-11-17T03:46:10.309Z,1.98
2022-11-17T03:49:59.942Z,1.99
2022-11-17T03:53:22.836Z,2.00
2022-11-17T03:57:06.087Z,2.01
2022-11-17T04:00:40.910Z,2.01
2022-11-17T04:04:54.009Z,2.00
2022-11-17T04:08:34.487Z,1.99
2022-11-17T04:12:14.832Z,2.00
2022-11-17T04:15:56.049Z,2.02
2022-11-17T04:19:36.674Z,2.00
2022-11-17T04:23:17.985Z,1.96
2022-11-17T04:27:17.637Z,1.94
2022-11-17T04:30:39.412Z,1.89
2022-11-17T04:34:37.953Z,1.85
2022-11-17T04:38:18.502Z,1.84
2022-11-17T04:42:03.290Z,1.80
2022-11-17T04:45:25.705Z,1.75
2022-11-17T04:49:01.929Z,1.72
2022-11-17T04:52:41.108Z,1.70
2022-11-17T04:56:38.307Z,1.67
2022-11-17T05:00:00.184Z,1.66
2022-11-17T05:04:05.333Z,1.65
2022-11-17T05:07:28.043Z,1.64
2022-11-17T05:11:45.098Z,1.70
2022-11-17T05:15:07.217Z,1.74
2022-11-17T05:18:44.314Z,1.75
2022-11-17T05:23:05.341Z,1.73
2022-11-17T05:26:32.534Z,1.71
2022-11-17T05:30:07.913Z,1.68
2022-11-17T05:33:44.500Z,1.66
2022-11-17T05:37:21.244Z,1.65
2022-11-17T05:40:59.080Z,1.68
2022-11-17T05:44:36.652Z,1.69
2022-11-17T05:48:14.273Z,1.70
2022-11-17T05:52:10.824Z,1.67
2022-11-17T05:55:32.539Z,1.68
2022-11-17T05:59:09.913Z,1.68
2022-11-17T06:02:54.273Z,1.71
2022-11-17T06:06:25.696Z,1.71
2022-11-17T06:10:03.545Z,1.68
2022-11-17T06:13:40.606Z,1.67
2022-11-17T06:17:35.685Z,1.65
2022-11-17T06:20:58.101Z,1.61
2022-11-17T06:24:37.820Z,1.57
2022-11-17T06:28:17.026Z,1.50
2022-11-17T06:31:51.552Z,1.39
2022-11-17T06:35:48.926Z,1.37
2022-11-17T06:39:10.606Z,1.35
2022-11-17T06:43:10.169Z,1.31
2022-11-17T06:46:38.116Z,1.25
2022-11-17T06:50:10.270Z,1.23
2022-11-17T06:54:08.223Z,1.26
2022-11-17T06:57:53.175Z,1.27
2022-11-17T07:01:15.936Z,1.29
2022-11-17T07:05:11.605Z,1.34
2022-11-17T07:08:34.668Z,1.36
2022-11-17T07:12:10.817Z,1.36
2022-11-17T07:16:10.078Z,1.34
2022-11-17T07:19:31.588Z,1.34
2022-11-17T07:23:09.361Z,1.36
2022-11-17T07:27:06.095Z,1.39
2022-11-17T07:30:46.380Z,1.39
2022-11-17T07:34:07.679Z,1.38
2022-11-17T07:38:04.393Z,1.43
2022-11-17T07:41:25.875Z,1.43
2022-11-17T07:45:03.988Z,1.43
2022-11-17T07:49:00.164Z,1.43
2022-11-17T07:52:21.516Z,1.43
2022-11-17T07:56:07.935Z,1.42
2022-11-17T07:59:37.007Z,1.43
2022-11-17T08:03:14.424Z,1.41
2022-11-17T08:07:11.095Z,1.37
2022-11-17T08:10:51.455Z,1.35
2022-11-17T08:14:12.868Z,1.34
2022-11-17T08:17:58.909Z,1.39
2022-11-17T08:21:28.707Z,1.42
2022-11-17T08:25:26.324Z,1.45
2022-11-17T08:29:06.776Z,1.50
2022-11-17T08:32:50.836Z,1.52
2022-11-17T08:36:31.165Z,1.51
2022-11-17T08:39:52.638Z,1.52
2022-11-17T08:43:30.642Z,1.55
2022-11-17T08:47:08.035Z,1.57
2022-11-17T08:50:45.695Z,1.54
2022-11-17T08:54:23.298Z,1.52
2022-11-17T08:58:00.880Z,1.45
2022-11-17T09:01:57.427Z,1.42
2022-11-17T09:05:19.137Z,1.46
2022-11-17T09:09:15.648Z,1.49
2022-11-17T09:12:37.012Z,1.56
2022-11-17T09:16:16.400Z,1.60
2022-11-17T09:20:11.533Z,1.58
2022-11-17T09:23:32.947Z,1.61
2022-11-17T09:27:29.353Z,1.70
2022-11-17T09:30:50.635Z,1.72
2022-11-17T09:34:29.489Z,1.69
2022-11-17T09:38:06.017Z,1.72
2022-11-17T09:41:49.999Z,1.75
2022-11-17T09:45:27.959Z,1.75
2022-11-17T09:49:12.743Z,1.73
2022-11-17T09:53:23.731Z,1.63
2022-11-17T09:56:47.488Z,1.50
2022-11-17T10:00:23.313Z,1.42
2022-11-17T10:04:19.405Z,1.38
2022-11-17T10:07:47.183Z,1.39
2022-11-17T10:11:33.946Z,1.38
2022-11-17T10:14:57.168Z,1.39
2022-11-17T10:18:52.764Z,1.40
2022-11-17T10:22:36.337Z,1.42
2022-11-17T10:26:17.026Z,1.48
2022-11-17T10:29:38.429Z,1.54
2022-11-17T10:33:41.849Z,1.53
2022-11-17T10:37:24.493Z,1.49
2022-11-17T10:40:50.512Z,1.45
2022-11-17T10:44:30.319Z,1.54
2022-11-17T10:48:35.587Z,1.59
2022-11-17T10:52:08.933Z,1.52
2022-11-17T10:55:36.952Z,1.46
2022-11-17T10:59:16.462Z,1.42
2022-11-17T11:03:22.654Z,1.40
2022-11-17T11:07:23.355Z,1.40
2022-11-17T11:11:12.107Z,1.37
2022-11-17T11:14:41.190Z,1.39
2022-11-17T11:18:18.909Z,1.34
2022-11-17T11:22:07.026Z,1.28
2022-11-17T11:25:37.693Z,1.22
2022-11-17T11:29:26.091Z,1.24
2022-11-17T11:33:29.810Z,1.22
2022-11-17T11:36:59.311Z,1.19
2022-11-17T11:40:37.910Z,1.14
2022-11-17T11:44:31.264Z,1.11
2022-11-17T11:48:23.828Z,1.10
2022-11-17T11:52:11.521Z,1.06
2022-11-17T11:56:11.542Z,1.09
2022-11-17T12:00:04.319Z,1.11
2022-11-17T12:03:54.836Z,1.18
2022-11-17T12:07:46.194Z,1.21
2022-11-17T12:11:46.966Z,1.19
2022-11-17T12:15:20.679Z,1.08
2022-11-17T12:18:46.459Z,1.02
2022-11-17T12:22:29.638Z,0.95
2022-11-17T12:26:02.908Z,0.95
2022-11-17T12:29:57.907Z,0.97
2022-11-17T12:33:20.093Z,1.00
2022-11-17T12:37:13.077Z,0.98
2022-11-17T12:40:38.774Z,0.94
2022-11-17T12:44:31.748Z,0.89
2022-11-17T12:48:18.275Z,0.88
2022-11-17T12:52:03.633Z,0.89
2022-11-17T12:55:43.482Z,0.90
2022-11-17T12:59:27.792Z,0.91
2022-11-17T13:02:56.343Z,0.88
2022-11-17T13:06:35.313Z,0.85
2022-11-17T13:10:32.259Z,0.85
2022-11-17T13:14:16.372Z,0.88
2022-11-17T13:17:42.545Z,0.87
2022-11-17T13:21:26.117Z,0.90
2022-11-17T13:24:54.599Z,0.96
2022-11-17T13:29:03.434Z,1.03
2022-11-17T13:32:43.528Z,1.09
2022-11-17T13:36:27.185Z,1.13
2022-11-17T13:40:19.895Z,1.15
2022-11-17T13:43:42.211Z,1.08
2022-11-17T13:47:37.977Z,1.03
2022-11-17T13:51:17.650Z,0.98
2022-11-17T13:54:58.881Z,0.99
2022-11-17T13:58:42.894Z,1.03
2022-11-17T14:02:25.126Z,1.04
2022-11-17T14:05:59.120Z,1.06
2022-11-17T14:09:43.060Z,1.08
2022-11-17T14:13:04.361Z,1.07
2022-11-17T14:17:12.889Z,1.00
2022-11-17T14:21:07.657Z,0.93
2022-11-17T14:24:30.044Z,0.88
2022-11-17T14:28:18.105Z,0.82
2022-11-17T14:31:44.301Z,0.83
2022-11-17T14:35:21.976Z,0.87
2022-11-17T14:39:01.941Z,0.90
2022-11-17T14:42:41.425Z,0.91
2022-11-17T14:46:34.753Z,0.83
2022-11-17T14:49:57.506Z,0.79
2022-11-17T14:53:36.776Z,0.72
2022-11-17T14:57:11.545Z,0.67
2022-11-17T15:00:49.415Z,0.64
2022-11-17T15:04:49.440Z,0.62
2022-11-17T15:08:28.267Z,0.67
2022-11-17T15:11:51.999Z,0.74
2022-11-17T15:15:46.455Z,0.76
2022-11-17T15:19:26.682Z,0.77
2022-11-17T15:22:49.985Z,0.72
2022-11-17T15:26:44.560Z,0.65
2022-11-17T15:30:06.888Z,0.57
2022-11-17T15:34:02.405Z,0.47
2022-11-17T15:37:23.739Z,0.49
2022-11-17T15:41:20.764Z,0.48
2022-11-17T15:44:42.166Z,0.48
2022-11-17T15:48:43.403Z,0.47
2022-11-17T15:52:04.708Z,0.45
2022-11-17T15:55:42.437Z,0.39
2022-11-17T15:59:20.457Z,0.33
2022-11-17T16:02:58.973Z,0.31
2022-11-17T16:06:38.261Z,0.33
2022-11-17T16:10:31.959Z,0.35
2022-11-17T16:13:54.524Z,0.38
2022-11-17T16:17:30.680Z,0.34
2022-11-17T16:21:27.496Z,0.29
2022-11-17T16:25:09.841Z,0.21
2022-11-17T16:28:31.464Z,0.17
2022-11-17T16:32:08.953Z,0.15
2022-11-17T16:35:46.776Z,0.15
2022-11-17T16:39:24.709Z,0.15
2022-11-17T16:43:02.104Z,0.13
2022-11-17T16:46:58.639Z,0.10
2022-11-17T16:50:40.584Z,0.08
2022-11-17T16:54:23.831Z,0.04
2022-11-17T16:58:06.026Z,0.03
2022-11-17T17:01:36.059Z,0.04
2022-11-17T17:05:05.407Z,0.04
2022-11-17T17:08:43.547Z,0.01
2022-11-17T17:12:20.646Z,-0.03
2022-11-17T17:16:11.953Z,-0.05
2022-11-17T17:19:54.851Z,-0.03
2022-11-17T17:23:19.339Z,-0.02
2022-11-17T17:27:18.126Z,-0.02
2022-11-17T17:30:39.238Z,-0.03
2022-11-17T17:34:17.014Z,-0.06
2022-11-17T17:37:54.737Z,-0.06
2022-11-17T17:41:40.916Z,-0.05
2022-11-17T17:45:10.996Z,-0.03
2022-11-17T17:48:47.540Z,0.03
2022-11-17T17:56:21.277Z,0.07
2022-11-17T18:00:20.021Z,0.04
2022-11-17T18:03:43.499Z,-0.01
2022-11-17T18:07:19.395Z,-0.02
2022-11-17T18:11:00.843Z,-0.05
2022-11-17T18:14:53.604Z,-0.02
2022-11-17T18:18:34.728Z,0.00
2022-11-17T18:21:55.873Z,0.01
2022-11-17T18:25:33.521Z,-0.00
2022-11-17T18:29:30.257Z,-0.02
2022-11-17T18:33:15.642Z,-0.03
2022-11-17T18:36:56.382Z,-0.07
2022-11-17T18:40:17.665Z,-0.11
2022-11-17T18:43:55.387Z,-0.13
2022-11-17T18:47:32.971Z,-0.11
2022-11-17T18:51:21.283Z,-0.09
2022-11-17T18:54:48.280Z,-0.06
2022-11-17T18:58:45.312Z,-0.05
2022-11-17T19:02:09.411Z,-0.09
2022-11-17T19:06:05.515Z,-0.09
2022-11-17T19:09:26.910Z,-0.12
2022-11-17T19:13:05.457Z,-0.17
2022-11-17T19:16:44.936Z,-0.20
2022-11-17T19:20:19.940Z,-0.18
2022-11-17T19:24:16.556Z,-0.16
2022-11-17T19:27:38.786Z,-0.09
2022-11-17T19:31:20.281Z,-0.09
2022-11-17T19:35:18.373Z,-0.12
2022-11-17T19:38:43.219Z,-0.17
2022-11-17T19:42:20.485Z,-0.19
2022-11-17T19:46:03.359Z,-0.21
2022-11-17T19:49:36.646Z,-0.27
2022-11-17T19:53:13.429Z,-0.28
2022-11-17T19:56:51.337Z,-0.29
2022-11-17T20:00:28.904Z,-0.30
2022-11-17T20:04:07.323Z,-0.26
2022-11-17T20:07:44.167Z,-0.24
2022-11-17T20:11:25.109Z,-0.23
2022-11-17T20:15:33.836Z,-0.18
2022-11-17T20:19:15.700Z,-0.17
2022-11-17T20:22:37.805Z,-0.17
2022-11-17T20:26:18.205Z,-0.22
2022-11-17T20:29:53.929Z,-0.32
2022-11-17T20:33:31.437Z,-0.39
2022-11-17T20:37:07.995Z,-0.42
2022-11-17T20:41:05.048Z,-0.37
2022-11-17T20:44:45.292Z,-0.30
2022-11-17T20:48:06.888Z,-0.22
2022-11-17T20:52:04.621Z,-0.19
2022-11-17T20:55:29.073Z,-0.21
2022-11-17T20:59:04.995Z,-0.21
2022-11-17T21:03:01.463Z,-0.23
2022-11-17T21:06:41.647Z,-0.26
2022-11-17T21:10:22.129Z,-0.26
2022-11-17T21:14:07.610Z,-0.28
2022-11-17T21:17:47.974Z,-0.21
2022-11-17T21:21:28.863Z,-0.16
2022-11-17T21:25:09.264Z,-0.13
2022-11-17T21:28:50.057Z,-0.08
2022-11-17T21:32:30.216Z,-0.08
2022-11-17T21:35:51.529Z,-0.13
2022-11-17T21:39:29.383Z,-0.22
2022-11-17T21:43:06.836Z,-0.30
2022-11-17T21:46:44.463Z,-0.33
2022-11-17T21:50:44.951Z,-0.32
2022-11-17T21:54:25.591Z,-0.29
2022-11-17T21:58:05.948Z,-0.22
2022-11-17T22:01:28.847Z,-0.18
2022-11-17T22:05:05.298Z,-0.17
2022-11-17T22:09:01.613Z,-0.21
2022-11-17T22:12:41.673Z,-0.22
2022-11-17T22:16:09.638Z,-0.24
2022-11-17T22:19:40.789Z,-0.30
2022-11-17T22:23:20.067Z,-0.31
2022-11-17T22:26:56.171Z,-0.27
2022-11-17T22:30:33.823Z,-0.25
2022-11-17T22:34:13.516Z,-0.25
2022-11-17T22:37:49.578Z,-0.26
2022-11-17T22:41:45.834Z,-0.29
2022-11-17T22:45:07.463Z,-0.35
2022-11-17T22:49:03.619Z,-0.39
2022-11-17T22:52:25.084Z,-0.39
2022-11-17T22:56:05.087Z,-0.38
2022-11-17T22:59:40.279Z,-0.33
2022-11-17T23:03:36.858Z,-0.28
2022-11-17T23:07:16.960Z,-0.29
2022-11-17T23:10:38.697Z,-0.31
2022-11-17T23:14:16.150Z,-0.33
2022-11-17T23:17:53.950Z,-0.34
2022-11-17T23:21:31.408Z,-0.35
2022-11-17T23:25:27.933Z,-0.37
2022-11-17T23:28:49.556Z,-0.41
2022-11-17T23:32:26.973Z,-0.42
2022-11-17T23:36:07.828Z,-0.37
2022-11-17T23:40:01.612Z,-0.28
2022-11-17T23:43:42.168Z,-0.20
2022-11-17T23:47:03.619Z,-0.15
2022-11-17T23:50:41.095Z,-0.11
2022-11-17T23:54:18.815Z,-0.17
2022-11-17T23:57:56.476Z,-0.22
